createdAt,value
2023-03-27T00:01:22.547Z,8.75
2023-03-27T00:03:50.538Z,9.10
2023-03-27T00:06:20.938Z,10.07
2023-03-27T00:08:50.997Z,10.77
2023-03-27T00:11:21.425Z,14.27
2023-03-27T00:13:51.391Z,15.10
2023-03-27T00:16:23.008Z,14.82
2023-03-27T00:18:53.618Z,15.45
2023-03-27T00:21:22.588Z,14.00
2023-03-27T00:23:49.757Z,14.00
2023-03-27T00:26:16.809Z,14.02
2023-03-27T00:28:43.884Z,8.45
2023-03-27T00:31:12.447Z,10.45
2023-03-27T00:33:40.138Z,13.95
2023-03-27T00:36:07.811Z,10.43
2023-03-27T00:38:34.962Z,8.48
2023-03-27T00:41:02.764Z,7.32
2023-03-27T00:43:36.861Z,7.57
2023-03-27T00:46:43.361Z,5.15
2023-03-27T00:49:11.907Z,6.53
2023-03-27T00:51:39.031Z,7.32
2023-03-27T00:54:08.879Z,7.25
2023-03-27T00:56:38.752Z,7.95
2023-03-27T00:59:19.648Z,6.95
2023-03-27T01:01:51.676Z,9.43
2023-03-27T01:04:21.618Z,8.73
2023-03-27T01:06:50.892Z,10.13
2023-03-27T01:09:20.501Z,7.07
2023-03-27T01:12:09.014Z,5.82
2023-03-27T01:14:51.294Z,5.30
2023-03-27T01:17:25.207Z,6.35
2023-03-27T01:20:42.809Z,23.20
2023-03-27T01:23:36.247Z,6.97
2023-03-27T01:26:36.211Z,6.53
2023-03-27T01:31:38.993Z,5.68
2023-03-27T01:34:43.889Z,5.10
2023-03-27T01:37:17.487Z,6.03
2023-03-27T01:39:54.977Z,7.10
2023-03-27T01:42:31.335Z,5.63
2023-03-27T01:45:20.917Z,5.57
2023-03-27T01:48:10.074Z,5.32
2023-03-27T01:50:46.672Z,4.65
2023-03-27T01:53:21.134Z,5.00
2023-03-27T01:55:52.863Z,4.85
2023-03-27T01:58:22.843Z,5.38
2023-03-27T02:01:03.717Z,4.38
2023-03-27T02:03:42.062Z,6.63
2023-03-27T02:06:14.428Z,5.97
2023-03-27T02:08:51.125Z,6.10
2023-03-27T02:11:18.193Z,5.93
2023-03-27T02:19:02.061Z,7.53
2023-03-27T02:21:31.539Z,9.05
2023-03-27T02:24:02.190Z,10.18
2023-03-27T02:26:32.807Z,5.53
2023-03-27T02:29:21.548Z,7.85
2023-03-27T02:32:10.555Z,6.35
2023-03-27T02:40:18.982Z,7.13
2023-03-27T02:43:12.000Z,6.55
2023-03-27T02:46:01.154Z,5.90
2023-03-27T02:49:02.317Z,5.63
2023-03-27T02:51:35.014Z,6.00
2023-03-27T02:54:13.325Z,5.20
2023-03-27T02:56:49.100Z,5.82
2023-03-27T02:59:39.652Z,5.90
2023-03-27T03:02:09.964Z,6.45
2023-03-27T03:04:49.371Z,7.07
2023-03-27T03:07:16.475Z,7.82
2023-03-27T03:09:44.733Z,6.25
2023-03-27T03:12:12.443Z,6.80
2023-03-27T03:19:56.857Z,7.18
2023-03-27T03:28:18.416Z,8.68
2023-03-27T03:33:21.520Z,6.80
2023-03-27T03:38:40.969Z,6.47
2023-03-27T03:43:58.611Z,6.43
2023-03-27T03:57:20.595Z,6.28
2023-03-27T04:02:13.263Z,6.28
2023-03-27T04:07:31.632Z,5.80
2023-03-27T04:15:23.316Z,7.10
2023-03-27T04:23:33.360Z,6.43
2023-03-27T04:26:01.232Z,6.53
2023-03-27T04:28:34.724Z,5.72
2023-03-27T04:31:06.641Z,6.57
2023-03-27T04:33:46.972Z,6.80
2023-03-27T04:36:17.526Z,5.82
2023-03-27T04:38:45.758Z,6.53
2023-03-27T04:41:12.755Z,4.63
2023-03-27T04:43:42.344Z,6.65
2023-03-27T04:46:09.688Z,7.43
2023-03-27T04:48:39.258Z,7.00
2023-03-27T04:51:06.989Z,6.50
2023-03-27T04:53:36.406Z,6.90
2023-03-27T04:56:03.858Z,7.13
2023-03-27T04:58:31.062Z,7.25
2023-03-27T05:00:58.447Z,7.05
2023-03-27T05:03:28.128Z,6.47
2023-03-27T05:05:55.622Z,6.53
2023-03-27T05:08:22.887Z,6.35
2023-03-27T05:10:50.088Z,6.60
2023-03-27T05:13:17.061Z,5.50
2023-03-27T05:15:44.117Z,6.80
2023-03-27T05:18:11.126Z,6.28
2023-03-27T05:20:38.079Z,5.60
2023-03-27T05:23:05.259Z,6.80
2023-03-27T05:25:32.701Z,5.10
2023-03-27T05:30:29.840Z,5.65
2023-03-27T05:32:59.744Z,6.30
2023-03-27T05:35:28.699Z,6.35
2023-03-27T05:40:27.392Z,5.38
2023-03-27T05:42:55.521Z,6.57
2023-03-27T05:45:24.761Z,5.33
2023-03-27T05:47:53.496Z,5.95
2023-03-27T05:50:22.178Z,6.32
2023-03-27T05:53:04.608Z,5.50
2023-03-27T05:55:32.173Z,6.03
2023-03-27T05:58:06.272Z,5.75
2023-03-27T06:03:17.778Z,6.78
2023-03-27T06:11:39.587Z,8.60
2023-03-27T06:17:02.025Z,7.80
2023-03-27T06:19:35.334Z,8.35
2023-03-27T06:22:03.704Z,5.45
2023-03-27T06:24:31.157Z,5.50
2023-03-27T06:26:58.750Z,4.53
2023-03-27T06:29:29.945Z,4.47
2023-03-27T06:31:58.985Z,3.90
2023-03-27T06:39:29.824Z,3.00
2023-03-27T06:41:58.472Z,1.10
2023-03-27T06:44:25.480Z,1.10
2023-03-27T06:46:52.916Z,0.60
2023-03-27T06:49:20.202Z,0.57
2023-03-27T06:57:26.592Z,0.40
2023-03-27T07:00:19.829Z,0.60
2023-03-27T07:02:57.750Z,0.20
2023-03-27T07:05:31.373Z,0.90
2023-03-27T07:08:14.789Z,0.57
2023-03-27T07:11:32.339Z,0.88
2023-03-27T07:16:48.515Z,0.30
2023-03-27T07:19:18.984Z,0.30
2023-03-27T07:21:46.559Z,0.20
2023-03-27T07:24:15.089Z,0.73
2023-03-27T07:26:42.038Z,0.70
2023-03-27T07:29:10.932Z,0.30
2023-03-27T07:34:26.084Z,0.28
2023-03-27T07:36:56.941Z,0.20
2023-03-27T07:39:43.429Z,0.47
2023-03-27T07:42:10.781Z,0.30
2023-03-27T07:45:17.793Z,0.30
2023-03-27T07:47:47.729Z,0.40
2023-03-27T07:50:17.984Z,0.40
2023-03-27T07:52:45.988Z,0.30
2023-03-27T07:55:20.434Z,0.25
2023-03-27T07:58:00.607Z,0.70
2023-03-27T08:00:30.581Z,0.57
2023-03-27T08:03:14.514Z,0.70
2023-03-27T08:05:41.523Z,0.45
2023-03-27T08:08:09.882Z,0.40
2023-03-27T08:10:37.801Z,0.88
2023-03-27T08:13:04.814Z,1.00
2023-03-27T08:15:31.943Z,0.65
2023-03-27T08:18:00.361Z,0.80
2023-03-27T08:20:27.442Z,0.60
2023-03-27T08:22:54.487Z,0.50
2023-03-27T08:25:24.048Z,0.45
2023-03-27T08:27:51.264Z,0.47
2023-03-27T08:30:19.219Z,0.90
2023-03-27T08:32:47.288Z,0.90
2023-03-27T08:35:15.167Z,0.63
2023-03-27T08:37:42.130Z,0.63
2023-03-27T08:40:26.354Z,1.02
2023-03-27T08:42:54.868Z,1.17
2023-03-27T08:45:46.667Z,0.68
2023-03-27T08:48:33.692Z,0.73
2023-03-27T08:51:04.284Z,1.00
2023-03-27T08:53:31.595Z,0.95
2023-03-27T08:55:58.835Z,1.77
2023-03-27T08:58:26.270Z,0.68
2023-03-27T09:01:05.217Z,0.70
2023-03-27T09:06:38.531Z,0.77
2023-03-27T09:09:27.189Z,0.90
2023-03-27T09:11:57.694Z,0.90
2023-03-27T09:14:32.142Z,0.98
2023-03-27T09:17:01.434Z,0.82
2023-03-27T09:20:07.311Z,0.70
2023-03-27T09:22:40.893Z,0.90
2023-03-27T09:25:27.651Z,2.00
2023-03-27T09:27:54.660Z,1.00
2023-03-27T09:30:39.177Z,0.90
2023-03-27T09:33:06.290Z,1.00
2023-03-27T09:35:35.602Z,1.58
2023-03-27T09:38:07.046Z,1.00
2023-03-27T09:40:43.426Z,2.58
2023-03-27T09:43:17.810Z,1.00
2023-03-27T09:45:44.845Z,1.10
2023-03-27T09:48:39.639Z,1.20
2023-03-27T09:51:14.066Z,0.93
2023-03-27T09:53:43.756Z,1.10
2023-03-27T09:56:14.571Z,1.88
2023-03-27T09:58:45.936Z,2.42
2023-03-27T10:01:25.037Z,1.67
2023-03-27T10:04:01.316Z,1.33
2023-03-27T10:06:37.886Z,3.22
2023-03-27T10:12:25.128Z,1.95
2023-03-27T10:14:52.960Z,2.38
2023-03-27T10:17:27.566Z,2.33
2023-03-27T10:20:02.180Z,2.00
2023-03-27T10:22:31.728Z,2.80
2023-03-27T10:25:00.513Z,3.33
2023-03-27T10:27:35.227Z,3.10
2023-03-27T10:30:03.078Z,1.85
2023-03-27T10:32:44.400Z,1.20
2023-03-27T10:35:24.569Z,2.00
2023-03-27T10:37:51.687Z,1.92
2023-03-27T10:40:24.756Z,1.65
2023-03-27T10:42:52.110Z,2.05
2023-03-27T10:45:20.756Z,1.73
2023-03-27T10:47:59.450Z,1.98
2023-03-27T10:50:29.293Z,1.55
2023-03-27T10:53:18.188Z,1.80
2023-03-27T10:58:30.799Z,0.85
2023-03-27T11:01:21.655Z,2.45
2023-03-27T11:03:57.668Z,1.23
2023-03-27T11:06:27.423Z,1.90
2023-03-27T11:09:06.038Z,2.05
2023-03-27T11:11:38.844Z,1.48
2023-03-27T11:14:10.996Z,1.52
2023-03-27T11:16:40.202Z,2.25
2023-03-27T11:19:10.312Z,1.50
2023-03-27T11:21:57.470Z,1.30
2023-03-27T11:24:47.915Z,1.77
2023-03-27T11:27:15.904Z,1.83
2023-03-27T11:30:22.430Z,2.22
2023-03-27T11:33:15.450Z,1.70
2023-03-27T11:35:47.177Z,3.55
2023-03-27T11:38:29.104Z,4.32
2023-03-27T11:40:56.762Z,1.10
2023-03-27T11:43:25.420Z,1.00
2023-03-27T11:46:16.243Z,0.95
2023-03-27T11:49:11.099Z,1.58
2023-03-27T11:51:50.442Z,0.90
2023-03-27T11:54:54.359Z,2.42
2023-03-27T11:57:26.038Z,2.10
2023-03-27T11:59:59.733Z,1.55
2023-03-27T12:02:35.744Z,1.70
2023-03-27T12:05:09.117Z,2.28
2023-03-27T12:07:57.949Z,3.60
2023-03-27T12:10:35.905Z,1.67
2023-03-27T12:13:34.860Z,1.38
2023-03-27T12:16:21.498Z,1.27
2023-03-27T12:19:08.073Z,2.15
2023-03-27T12:22:01.945Z,1.75
2023-03-27T12:24:34.280Z,1.98
2023-03-27T12:27:26.267Z,2.10
2023-03-27T12:30:21.011Z,1.98
2023-03-27T12:33:11.095Z,1.63
2023-03-27T12:35:42.198Z,1.50
2023-03-27T12:38:22.627Z,2.90
2023-03-27T12:41:00.819Z,2.05
2023-03-27T12:43:33.902Z,1.80
2023-03-27T12:46:23.084Z,2.60
2023-03-27T12:49:08.357Z,2.20
2023-03-27T12:51:52.106Z,1.95
2023-03-27T12:54:29.546Z,1.35
2023-03-27T12:57:18.328Z,1.63
2023-03-27T13:02:16.141Z,1.63
2023-03-27T13:05:08.654Z,1.42
2023-03-27T13:07:43.622Z,1.70
2023-03-27T13:10:52.361Z,1.40
2023-03-27T13:13:38.244Z,1.20
2023-03-27T13:16:25.765Z,1.45
2023-03-27T13:19:07.790Z,2.47
2023-03-27T13:21:59.210Z,2.05
2023-03-27T13:25:03.512Z,1.77
2023-03-27T13:27:42.570Z,1.20
2023-03-27T13:33:16.544Z,1.00
2023-03-27T13:35:58.726Z,1.25
2023-03-27T13:38:52.018Z,1.77
2023-03-27T13:41:44.033Z,1.27
2023-03-27T13:44:18.338Z,1.60
2023-03-27T13:46:54.848Z,1.10
2023-03-27T13:49:47.759Z,1.90
2023-03-27T13:52:38.908Z,1.00
2023-03-27T13:55:17.949Z,1.70
2023-03-27T14:00:41.815Z,1.00
2023-03-27T14:03:33.103Z,0.90
2023-03-27T14:06:34.305Z,1.17
2023-03-27T14:09:26.824Z,2.90
2023-03-27T14:12:18.483Z,1.48
2023-03-27T14:15:08.020Z,7.70
2023-03-27T14:17:42.807Z,1.80
2023-03-27T14:20:19.262Z,3.80
2023-03-27T14:22:57.035Z,1.95
2023-03-27T14:25:45.363Z,1.08
2023-03-27T14:28:33.654Z,0.90
2023-03-27T14:31:03.434Z,0.95
2023-03-27T14:33:31.012Z,1.77
2023-03-27T14:36:04.237Z,1.27
2023-03-27T14:38:33.396Z,2.35
2023-03-27T14:43:31.973Z,2.50
2023-03-27T14:46:00.781Z,0.80
2023-03-27T14:51:02.871Z,2.25
2023-03-27T14:53:38.630Z,1.80
2023-03-27T14:56:18.654Z,1.40
2023-03-27T14:58:46.656Z,0.80
2023-03-27T15:01:17.274Z,2.15
2023-03-27T15:03:47.516Z,1.40
2023-03-27T15:06:26.593Z,0.70
2023-03-27T15:13:50.760Z,3.65
2023-03-27T15:16:23.832Z,3.10
2023-03-27T15:19:07.266Z,4.57
2023-03-27T15:21:57.824Z,5.47
2023-03-27T15:24:58.876Z,8.73
2023-03-27T15:27:37.899Z,8.27
2023-03-27T15:32:43.991Z,2.58
2023-03-27T15:35:37.944Z,1.60
2023-03-27T15:38:05.975Z,3.33
2023-03-27T15:40:38.156Z,4.68
2023-03-27T15:43:16.745Z,2.00
2023-03-27T15:45:54.388Z,3.17
2023-03-27T15:48:24.115Z,3.20
2023-03-27T15:50:56.073Z,1.27
2023-03-27T15:53:43.221Z,1.27
2023-03-27T15:56:25.260Z,1.55
2023-03-27T15:58:57.791Z,1.88
2023-03-27T16:01:26.534Z,2.05
2023-03-27T16:03:55.295Z,2.63
2023-03-27T16:06:51.375Z,0.98
2023-03-27T16:09:25.876Z,2.20
2023-03-27T16:11:54.415Z,2.30
2023-03-27T16:14:28.362Z,1.80
2023-03-27T16:17:11.661Z,3.05
2023-03-27T16:20:10.175Z,2.60
2023-03-27T16:22:38.061Z,1.58
2023-03-27T16:25:09.918Z,2.45
2023-03-27T16:31:12.088Z,2.20
2023-03-27T16:33:39.193Z,2.67
2023-03-27T16:36:07.267Z,1.40
2023-03-27T16:38:39.629Z,2.90
2023-03-27T16:41:07.618Z,4.13
2023-03-27T16:43:34.550Z,4.60
2023-03-27T16:46:01.959Z,1.92
2023-03-27T16:48:29.060Z,2.20
2023-03-27T16:50:56.444Z,3.05
2023-03-27T16:55:54.246Z,4.05
2023-03-27T16:58:21.740Z,5.00
2023-03-27T17:00:48.760Z,3.03
2023-03-27T17:03:16.493Z,1.33
2023-03-27T17:05:44.292Z,1.60
2023-03-27T17:08:13.182Z,1.50
2023-03-27T17:10:40.221Z,1.50
2023-03-27T17:13:08.771Z,2.70
2023-03-27T17:15:40.106Z,4.65
2023-03-27T17:18:07.155Z,3.05
2023-03-27T17:20:35.563Z,4.10
2023-03-27T17:23:02.569Z,2.53
2023-03-27T17:25:29.499Z,7.30
2023-03-27T17:27:56.735Z,3.88
2023-03-27T17:30:36.743Z,7.57
2023-03-27T17:33:06.724Z,4.93
2023-03-27T17:35:33.806Z,4.53
2023-03-27T17:38:01.082Z,7.47
2023-03-27T17:40:28.538Z,5.38
2023-03-27T17:42:55.747Z,3.17
2023-03-27T17:45:24.263Z,3.90
2023-03-27T17:47:51.616Z,7.07
2023-03-27T17:50:18.663Z,10.70
2023-03-27T17:52:45.868Z,5.82
2023-03-27T17:55:12.868Z,11.48
2023-03-27T17:57:39.828Z,3.47
2023-03-27T18:00:07.523Z,23.65
2023-03-27T18:02:34.715Z,15.70
2023-03-27T18:05:01.888Z,9.70
2023-03-27T18:07:29.337Z,5.43
2023-03-27T18:09:56.346Z,11.07
2023-03-27T18:12:23.798Z,3.00
2023-03-27T18:14:50.849Z,4.75
2023-03-27T18:17:21.113Z,4.57
2023-03-27T18:19:48.966Z,2.35
2023-03-27T18:22:16.720Z,3.60
2023-03-27T18:24:45.319Z,3.22
2023-03-27T18:27:12.336Z,2.65
2023-03-27T18:29:39.386Z,3.03
2023-03-27T18:32:07.253Z,2.35
2023-03-27T18:34:34.536Z,3.60
2023-03-27T18:37:01.613Z,1.45
2023-03-27T18:39:28.913Z,3.50
2023-03-27T18:41:58.768Z,2.92
2023-03-27T18:44:26.332Z,5.82
2023-03-27T18:46:54.284Z,4.47
2023-03-27T18:49:25.265Z,3.60
2023-03-27T18:51:52.889Z,4.38
2023-03-27T18:54:20.057Z,3.53
2023-03-27T18:56:48.879Z,3.58
2023-03-27T18:59:16.294Z,2.28
2023-03-27T19:01:44.206Z,5.07
2023-03-27T19:04:11.238Z,1.90
2023-03-27T19:06:38.249Z,2.47
2023-03-27T19:09:09.056Z,1.60
2023-03-27T19:11:37.210Z,3.00
2023-03-27T19:14:04.479Z,2.00
2023-03-27T19:16:31.553Z,2.20
2023-03-27T19:18:58.564Z,4.28
2023-03-27T19:21:25.759Z,3.20
2023-03-27T19:23:52.987Z,2.40
2023-03-27T19:26:20.280Z,6.40
2023-03-27T19:28:50.346Z,4.43
2023-03-27T19:31:17.830Z,3.78
2023-03-27T19:33:46.210Z,5.47
2023-03-27T19:36:13.274Z,3.22
2023-03-27T19:38:42.890Z,9.70
2023-03-27T19:41:10.146Z,9.23
2023-03-27T19:43:37.269Z,10.40
2023-03-27T19:49:36.832Z,5.95
2023-03-27T19:52:07.469Z,5.63
2023-03-27T19:54:37.465Z,2.95
2023-03-27T19:57:05.699Z,2.17
2023-03-27T19:59:36.312Z,4.82
2023-03-27T20:02:07.533Z,4.72
2023-03-27T20:04:34.534Z,3.10
2023-03-27T20:07:02.247Z,3.53
2023-03-27T20:09:34.571Z,4.63
2023-03-27T20:12:01.682Z,4.55
2023-03-27T20:14:28.666Z,7.82
2023-03-27T20:19:56.327Z,2.35
2023-03-27T20:22:23.451Z,3.75
2023-03-27T20:24:52.171Z,4.13
2023-03-27T20:27:25.015Z,3.30
2023-03-27T20:29:52.403Z,4.85
2023-03-27T20:32:19.560Z,2.70
2023-03-27T20:34:49.136Z,3.20
2023-03-27T20:37:16.640Z,3.47
2023-03-27T20:39:50.274Z,1.60
2023-03-27T20:42:17.846Z,6.25
2023-03-27T20:44:45.374Z,2.72
2023-03-27T20:47:12.981Z,3.90
2023-03-27T20:49:41.681Z,1.67
2023-03-27T20:52:21.461Z,2.22
2023-03-27T20:57:33.918Z,3.88
2023-03-27T21:00:01.672Z,2.42
2023-03-27T21:02:28.772Z,2.35
2023-03-27T21:04:56.245Z,2.00
2023-03-27T21:07:23.280Z,2.35
2023-03-27T21:09:50.543Z,2.85
2023-03-27T21:12:18.239Z,2.90
2023-03-27T21:14:45.421Z,2.03
2023-03-27T21:17:12.541Z,2.42
2023-03-27T21:19:39.579Z,2.25
2023-03-27T21:22:06.549Z,2.42
2023-03-27T21:24:33.607Z,3.35
2023-03-27T21:27:00.687Z,2.63
2023-03-27T21:29:28.076Z,2.45
2023-03-27T21:31:55.174Z,2.90
2023-03-27T21:34:22.773Z,1.73
2023-03-27T21:36:49.754Z,2.00
2023-03-27T21:39:17.086Z,2.00
2023-03-27T21:41:44.216Z,2.30
2023-03-27T21:44:11.374Z,2.45
2023-03-27T21:46:38.350Z,2.60
2023-03-27T21:49:05.420Z,3.30
2023-03-27T21:51:32.403Z,3.22
2023-03-27T21:53:59.533Z,2.78
2023-03-27T21:56:26.588Z,3.35
2023-03-27T21:58:53.942Z,3.80
2023-03-27T22:01:21.147Z,3.22
2023-03-27T22:03:48.244Z,3.40
2023-03-27T22:06:16.262Z,3.10
2023-03-27T22:08:43.552Z,3.27
2023-03-27T22:11:11.452Z,3.28
2023-03-27T22:13:38.852Z,3.45
2023-03-27T22:16:12.223Z,3.58
2023-03-27T22:18:39.347Z,3.60
2023-03-27T22:21:32.774Z,3.50
2023-03-27T22:23:59.945Z,3.30
2023-03-27T22:26:29.349Z,2.55
2023-03-27T22:28:57.160Z,4.32
2023-03-27T22:31:24.465Z,3.20
2023-03-27T22:33:51.538Z,2.83
2023-03-27T22:36:19.658Z,3.63
2023-03-27T22:38:46.718Z,1.73
2023-03-27T22:41:14.363Z,3.42
2023-03-27T22:43:42.023Z,3.30
2023-03-27T22:46:16.914Z,3.22
2023-03-27T22:48:44.578Z,3.83
2023-03-27T22:51:12.735Z,3.80
2023-03-27T22:53:40.722Z,3.17
2023-03-27T22:56:08.343Z,3.33
2023-03-27T22:58:35.838Z,3.55
2023-03-27T23:01:04.096Z,4.10
2023-03-27T23:03:31.288Z,3.00
2023-03-27T23:05:58.687Z,3.08
2023-03-27T23:08:27.428Z,3.92
2023-03-27T23:10:56.346Z,3.47
2023-03-27T23:13:24.253Z,3.38
2023-03-27T23:15:51.927Z,2.78
2023-03-27T23:18:24.724Z,2.80
2023-03-27T23:20:59.515Z,3.47
2023-03-27T23:23:27.116Z,3.42
2023-03-27T23:25:54.539Z,3.10
2023-03-27T23:28:21.703Z,3.33
2023-03-27T23:31:00.957Z,2.90
2023-03-27T23:33:29.448Z,2.30
2023-03-27T23:36:35.862Z,2.75
2023-03-27T23:39:02.932Z,2.45
2023-03-27T23:41:29.902Z,2.38
2023-03-27T23:43:56.962Z,1.70
2023-03-27T23:46:23.980Z,1.60
2023-03-27T23:48:51.960Z,2.97
2023-03-27T23:51:19.046Z,2.40
2023-03-27T23:53:46.186Z,2.90
2023-03-27T23:56:13.144Z,2.55
2023-03-27T23:58:40.894Z,2.65
